Time;durP1;ratioP1;P1;durP2;ratioP2;P2;SDS_P1;SDS_P2;PMS_P1;PMS_P2;Temp;Humidity;BMP_temperature;BMP_pressure;BME280_temperature;BME280_humidity;BME280_pressure;Samples;Min_cycle;Max_cycle;Signal;HPM_P1;HPM_P2
2022/12/20 00:02:06;;;;;;;28.48;9.93;;;;;;;;;;5092816;28;20063;-78
2022/12/20 00:04:33;;;;;;;25.60;10.30;;;;;;;;;;5092215;28;20068;-78
2022/12/20 00:06:59;;;;;;;33.33;11.68;;;;;;;;;;5093200;28;20055;-79
2022/12/20 00:09:26;;;;;;;46.22;15.38;;;;;;;;;;5073034;28;20040;-78
2022/12/20 00:11:52;;;;;;;31.95;11.45;;;;;;;;;;5072412;28;20055;-78
2022/12/20 00:14:19;;;;;;;32.65;11.30;;;;;;;;;;5072522;28;20108;-79
2022/12/20 00:16:45;;;;;;;25.83;9.63;;;;;;;;;;5073153;28;20049;-79
2022/12/20 00:19:12;;;;;;;27.45;10.48;;;;;;;;;;5070801;28;20060;-77
2022/12/20 00:21:38;;;;;;;27.75;10.13;;;;;;;;;;5070657;28;20051;-77
2022/12/20 00:24:05;;;;;;;29.13;10.13;;;;;;;;;;5070099;28;20048;-77
2022/12/20 00:26:32;;;;;;;25.38;9.25;;;;;;;;;;5071980;28;20044;-77
2022/12/20 00:29:02;;;;;;;22.55;9.43;;;;;;;;;;5070950;28;20048;-77
2022/12/20 00:31:29;;;;;;;24.90;9.05;;;;;;;;;;5073369;28;20684;-76
2022/12/20 00:33:56;;;;;;;23.83;9.43;;;;;;;;;;5052525;28;20041;-77
2022/12/20 00:36:24;;;;;;;21.90;9.07;;;;;;;;;;5071283;28;20063;-77
2022/12/20 00:38:51;;;;;;;24.38;8.52;;;;;;;;;;5053649;28;20044;-78
2022/12/20 00:41:19;;;;;;;27.60;9.23;;;;;;;;;;5072955;28;20048;-77
2022/12/20 00:43:48;;;;;;;24.30;8.93;;;;;;;;;;5069645;28;20087;-77
2022/12/20 00:46:16;;;;;;;21.50;8.23;;;;;;;;;;5071967;28;20048;-78
2022/12/20 00:48:43;;;;;;;21.60;8.88;;;;;;;;;;5071919;28;20079;-78
2022/12/20 00:51:14;;;;;;;29.55;9.35;;;;;;;;;;5053846;28;20071;-78
2022/12/20 00:53:41;;;;;;;22.92;9.20;;;;;;;;;;5072662;28;20052;-77
2022/12/20 00:56:07;;;;;;;26.38;9.10;;;;;;;;;;5057100;28;20057;-77
2022/12/20 00:58:35;;;;;;;24.73;9.15;;;;;;;;;;5073845;28;20389;-76
2022/12/20 01:01:02;;;;;;;26.50;8.45;;;;;;;;;;5070056;28;20084;-75
2022/12/20 01:03:29;;;;;;;22.85;9.25;;;;;;;;;;5070602;28;20389;-76
2022/12/20 01:05:57;;;;;;;24.30;9.30;;;;;;;;;;5053786;28;20467;-77
2022/12/20 01:08:23;;;;;;;21.02;8.57;;;;;;;;;;5062686;28;20055;-77
2022/12/20 01:10:59;;;;;;;20.08;8.50;;;;;;;;;;5051661;28;20056;-76
2022/12/20 01:13:26;;;;;;;25.10;9.38;;;;;;;;;;5051333;28;20052;-77
2022/12/20 01:15:52;;;;;;;29.00;10.48;;;;;;;;;;5080482;28;20048;-77
2022/12/20 01:18:19;;;;;;;26.02;9.75;;;;;;;;;;5095289;28;20075;-77
2022/12/20 01:20:45;;;;;;;21.80;9.52;;;;;;;;;;5091310;28;20052;-77
2022/12/20 01:23:11;;;;;;;24.25;9.15;;;;;;;;;;5089989;28;20075;-76
2022/12/20 01:25:38;;;;;;;21.65;8.52;;;;;;;;;;5092537;28;20051;-76
2022/12/20 01:28:07;;;;;;;22.48;8.45;;;;;;;;;;5092492;28;20673;-77
2022/12/20 01:30:33;;;;;;;20.92;8.45;;;;;;;;;;5092647;28;20144;-78
2022/12/20 01:33:02;;;;;;;22.02;8.68;;;;;;;;;;5091711;28;20472;-77
2022/12/20 01:35:29;;;;;;;22.83;8.93;;;;;;;;;;5092003;28;20044;-77
2022/12/20 01:37:55;;;;;;;23.67;9.57;;;;;;;;;;5092397;28;20051;-78
2022/12/20 01:40:22;;;;;;;25.27;9.75;;;;;;;;;;5091810;28;20058;-78
2022/12/20 01:42:48;;;;;;;23.92;8.88;;;;;;;;;;5096509;28;20048;-77
2022/12/20 01:45:22;;;;;;;21.20;8.90;;;;;;;;;;5104620;28;20070;-77
2022/12/20 01:47:48;;;;;;;22.60;9.25;;;;;;;;;;5092261;28;20058;-77
2022/12/20 01:50:15;;;;;;;28.80;9.02;;;;;;;;;;5092194;28;20096;-77
2022/12/20 01:52:45;;;;;;;24.95;10.00;;;;;;;;;;5092250;28;20048;-77
2022/12/20 01:55:15;;;;;;;25.35;9.43;;;;;;;;;;5092090;28;20048;-77
2022/12/20 01:57:46;;;;;;;28.02;10.40;;;;;;;;;;5104720;28;20052;-75
2022/12/20 02:00:13;;;;;;;24.05;9.38;;;;;;;;;;5097196;28;20040;-77
2022/12/20 02:02:40;;;;;;;25.67;9.45;;;;;;;;;;5090805;28;20044;-77
2022/12/20 02:05:07;;;;;;;24.77;9.15;;;;;;;;;;5091332;28;20576;-77
2022/12/20 02:07:35;;;;;;;23.20;9.32;;;;;;;;;;5065590;28;20051;-78
2022/12/20 02:10:02;;;;;;;20.25;9.02;;;;;;;;;;5054765;28;20107;-77
2022/12/20 02:12:40;;;;;;;21.35;8.93;;;;;;;;;;5070540;28;20059;-77
2022/12/20 02:15:25;;;;;;;22.05;8.60;;;;;;;;;;5078237;28;20052;-77
2022/12/20 02:18:04;;;;;;;23.63;8.70;;;;;;;;;;5091169;28;20055;-78
2022/12/20 02:20:30;;;;;;;23.42;8.93;;;;;;;;;;5091156;28;20044;-78
2022/12/20 02:23:16;;;;;;;23.17;8.98;;;;;;;;;;5072927;28;20071;-77
2022/12/20 02:25:57;;;;;;;22.30;8.48;;;;;;;;;;5092596;28;20048;-78
2022/12/20 02:28:42;;;;;;;20.17;8.27;;;;;;;;;;5093244;28;20416;-77
2022/12/20 02:31:11;;;;;;;27.83;8.25;;;;;;;;;;5093423;28;20052;-78
2022/12/20 02:33:39;;;;;;;25.13;8.88;;;;;;;;;;5090180;28;20151;-78
2022/12/20 02:36:06;;;;;;;20.02;8.30;;;;;;;;;;5073103;28;20528;-78
2022/12/20 02:38:37;;;;;;;20.73;8.10;;;;;;;;;;5091584;28;20085;-78
2022/12/20 02:41:07;;;;;;;26.27;9.07;;;;;;;;;;5091736;28;20059;-77
2022/12/20 02:46:20;;;;;;;25.23;8.73;;;;;;;;;;5089280;28;20044;-78
2022/12/20 02:48:48;;;;;;;20.85;7.93;;;;;;;;;;5090167;28;20052;-78
2022/12/20 02:51:14;;;;;;;21.38;8.77;;;;;;;;;;5071200;28;20139;-78
2022/12/20 02:53:41;;;;;;;24.23;9.75;;;;;;;;;;5089622;28;20044;-78
2022/12/20 02:56:14;;;;;;;21.08;8.85;;;;;;;;;;5091352;28;20047;-77
2022/12/20 02:58:41;;;;;;;22.52;9.05;;;;;;;;;;5089738;28;20364;-78
2022/12/20 03:01:19;;;;;;;23.58;9.07;;;;;;;;;;5089738;28;20067;-78
2022/12/20 03:03:45;;;;;;;23.05;9.45;;;;;;;;;;5073442;28;20488;-77
2022/12/20 03:06:12;;;;;;;24.83;9.70;;;;;;;;;;5091245;28;20048;-77
2022/12/20 03:08:41;;;;;;;27.88;9.48;;;;;;;;;;5053931;28;20098;-78
2022/12/20 03:11:07;;;;;;;21.48;8.65;;;;;;;;;;5050509;28;20068;-78
2022/12/20 03:13:33;;;;;;;24.77;8.65;;;;;;;;;;5048113;28;20045;-77
2022/12/20 03:16:00;;;;;;;22.60;8.30;;;;;;;;;;5063534;28;20064;-77
2022/12/20 03:18:27;;;;;;;22.52;8.80;;;;;;;;;;5070100;28;20049;-78
2022/12/20 03:20:53;;;;;;;22.70;8.90;;;;;;;;;;5069959;28;20051;-77
2022/12/20 03:23:22;;;;;;;22.55;9.05;;;;;;;;;;5069127;28;20048;-78
2022/12/20 03:25:49;;;;;;;25.45;8.50;;;;;;;;;;5069977;28;20514;-77
2022/12/20 03:28:16;;;;;;;18.88;8.50;;;;;;;;;;5069175;28;20076;-77
2022/12/20 03:30:43;;;;;;;27.60;8.98;;;;;;;;;;5069624;28;20067;-77
2022/12/20 03:33:09;;;;;;;22.15;8.80;;;;;;;;;;5049655;28;20401;-78
2022/12/20 03:35:39;;;;;;;16.27;7.93;;;;;;;;;;5069814;28;20044;-78
2022/12/20 03:38:05;;;;;;;17.15;8.27;;;;;;;;;;5069919;28;20041;-78
2022/12/20 03:40:34;;;;;;;22.33;8.57;;;;;;;;;;5069327;28;20148;-78
2022/12/20 03:43:01;;;;;;;20.38;8.82;;;;;;;;;;5067284;28;20469;-78
2022/12/20 03:45:27;;;;;;;22.15;8.77;;;;;;;;;;5068358;28;20489;-78
2022/12/20 03:47:54;;;;;;;25.15;10.10;;;;;;;;;;5068901;28;20058;-78
2022/12/20 03:50:20;;;;;;;22.55;8.75;;;;;;;;;;5068918;28;20053;-77
2022/12/20 03:52:47;;;;;;;24.73;9.80;;;;;;;;;;5066801;28;20057;-77
2022/12/20 03:55:13;;;;;;;28.10;9.75;;;;;;;;;;5067688;28;20048;-77
2022/12/20 03:57:40;;;;;;;26.08;8.95;;;;;;;;;;5067262;28;20048;-77
2022/12/20 04:00:07;;;;;;;21.15;8.35;;;;;;;;;;5066723;28;20054;-77
2022/12/20 04:02:34;;;;;;;23.98;7.90;;;;;;;;;;5066046;28;20493;-78
2022/12/20 04:05:00;;;;;;;21.45;7.55;;;;;;;;;;5067559;28;20079;-78
2022/12/20 04:07:27;;;;;;;17.85;7.20;;;;;;;;;;5068572;28;20041;-78
2022/12/20 04:09:53;;;;;;;17.02;7.57;;;;;;;;;;5067483;28;20044;-78
2022/12/20 04:12:20;;;;;;;16.63;7.50;;;;;;;;;;5070632;28;20056;-78
2022/12/20 04:14:46;;;;;;;18.10;7.05;;;;;;;;;;5074838;28;20036;-78
2022/12/20 04:17:12;;;;;;;15.43;6.60;;;;;;;;;;5091638;28;20044;-77
2022/12/20 04:19:39;;;;;;;19.40;6.40;;;;;;;;;;5092517;28;20059;-77
2022/12/20 04:22:05;;;;;;;18.63;7.00;;;;;;;;;;5097352;28;20048;-78
2022/12/20 04:24:31;;;;;;;15.90;6.68;;;;;;;;;;5095172;28;20055;-78
2022/12/20 04:26:58;;;;;;;20.65;7.10;;;;;;;;;;5092386;28;20063;-78
2022/12/20 04:29:24;;;;;;;21.17;7.45;;;;;;;;;;5091623;28;20520;-77
2022/12/20 04:31:51;;;;;;;17.90;7.65;;;;;;;;;;5077193;28;20060;-76
2022/12/20 04:34:17;;;;;;;17.67;7.95;;;;;;;;;;5070891;28;20078;-78
2022/12/20 04:36:44;;;;;;;20.63;7.50;;;;;;;;;;5072420;28;20048;-77
2022/12/20 04:39:10;;;;;;;19.08;7.38;;;;;;;;;;5054208;28;20047;-78
2022/12/20 04:41:39;;;;;;;15.73;6.88;;;;;;;;;;5074633;28;20067;-78
2022/12/20 04:44:06;;;;;;;18.10;6.60;;;;;;;;;;5075724;28;20049;-77
2022/12/20 04:46:32;;;;;;;27.48;8.70;;;;;;;;;;5074221;28;20072;-77
2022/12/20 04:48:59;;;;;;;24.23;7.93;;;;;;;;;;5056312;28;20052;-78
2022/12/20 04:51:26;;;;;;;23.55;7.93;;;;;;;;;;5074205;28;20049;-78
2022/12/20 04:53:53;;;;;;;26.25;8.05;;;;;;;;;;5071827;28;20496;-78
2022/12/20 04:56:20;;;;;;;24.77;8.50;;;;;;;;;;5057754;28;20044;-78
2022/12/20 04:58:48;;;;;;;23.35;8.00;;;;;;;;;;5080540;28;20044;-77
2022/12/20 05:01:15;;;;;;;22.20;8.05;;;;;;;;;;5075312;28;20406;-78
2022/12/20 05:03:43;;;;;;;21.80;8.65;;;;;;;;;;5070501;28;20074;-77
2022/12/20 05:06:09;;;;;;;24.33;8.50;;;;;;;;;;5057656;28;20059;-78
2022/12/20 05:08:38;;;;;;;26.38;9.05;;;;;;;;;;5072651;28;20123;-79
2022/12/20 05:11:08;;;;;;;24.50;9.32;;;;;;;;;;5072285;28;20058;-78
2022/12/20 05:13:34;;;;;;;20.95;8.95;;;;;;;;;;5068422;28;20052;-77
2022/12/20 05:16:01;;;;;;;23.50;8.85;;;;;;;;;;5084571;28;20071;-78
2022/12/20 05:18:28;;;;;;;22.70;8.45;;;;;;;;;;5090780;28;20134;-78
2022/12/20 05:26:27;;;;;;;21.85;8.98;;;;;;;;;;5093714;28;20054;-78
2022/12/20 05:28:56;;;;;;;27.67;9.43;;;;;;;;;;5092247;28;20569;-78
2022/12/20 05:31:23;;;;;;;28.40;9.85;;;;;;;;;;5092775;28;20056;-78
2022/12/20 05:33:49;;;;;;;26.65;9.73;;;;;;;;;;5090667;28;20054;-77
2022/12/20 05:36:15;;;;;;;32.47;10.15;;;;;;;;;;5092025;28;20075;-78
2022/12/20 05:38:42;;;;;;;26.88;10.18;;;;;;;;;;5091640;28;20077;-78
2022/12/20 05:41:08;;;;;;;30.73;11.05;;;;;;;;;;5092667;28;20048;-78
2022/12/20 05:43:34;;;;;;;28.35;10.75;;;;;;;;;;5089075;28;20048;-77
2022/12/20 05:46:01;;;;;;;28.20;10.48;;;;;;;;;;5092152;28;20488;-78
2022/12/20 05:48:27;;;;;;;33.72;12.23;;;;;;;;;;5091951;28;20052;-78
2022/12/20 05:50:54;;;;;;;30.60;11.35;;;;;;;;;;5073993;28;20074;-79
2022/12/20 05:53:20;;;;;;;39.58;12.00;;;;;;;;;;5091566;28;20044;-78
2022/12/20 05:55:47;;;;;;;30.55;12.00;;;;;;;;;;5092260;28;20058;-78
2022/12/20 05:58:14;;;;;;;32.53;12.07;;;;;;;;;;5091680;28;20052;-78
2022/12/20 06:00:41;;;;;;;32.47;13.13;;;;;;;;;;5091827;28;20523;-78
2022/12/20 06:03:08;;;;;;;36.03;12.20;;;;;;;;;;5090335;28;20044;-78
2022/12/20 06:05:35;;;;;;;37.67;12.60;;;;;;;;;;5092196;28;20044;-78
2022/12/20 06:08:03;;;;;;;31.33;12.07;;;;;;;;;;5065343;28;20048;-80
2022/12/20 06:10:29;;;;;;;34.05;12.60;;;;;;;;;;5072015;28;20048;-79
2022/12/20 06:12:56;;;;;;;36.72;11.77;;;;;;;;;;5071159;28;20048;-79
2022/12/20 06:15:22;;;;;;;42.85;12.77;;;;;;;;;;5064554;28;20055;-78
2022/12/20 06:17:48;;;;;;;31.77;12.80;;;;;;;;;;5066552;28;20686;-78
2022/12/20 06:20:15;;;;;;;32.00;11.48;;;;;;;;;;5066624;28;20448;-79
2022/12/20 06:22:41;;;;;;;25.20;10.02;;;;;;;;;;5064984;28;20056;-78
2022/12/20 06:25:13;;;;;;;29.75;10.52;;;;;;;;;;5066997;28;20745;-79
2022/12/20 06:27:40;;;;;;;19.67;8.52;;;;;;;;;;5065813;28;20048;-78
2022/12/20 06:30:07;;;;;;;20.48;8.43;;;;;;;;;;5065436;28;20052;-79
2022/12/20 06:32:34;;;;;;;21.88;8.05;;;;;;;;;;5066930;28;20390;-78
2022/12/20 06:35:00;;;;;;;20.88;8.88;;;;;;;;;;5066673;28;20056;-78
2022/12/20 06:37:26;;;;;;;21.50;8.55;;;;;;;;;;5069120;28;20084;-79
2022/12/20 06:39:53;;;;;;;21.95;8.70;;;;;;;;;;5066727;28;20049;-79
2022/12/20 06:42:19;;;;;;;22.33;8.23;;;;;;;;;;5065948;28;20056;-77
2022/12/20 06:44:46;;;;;;;19.67;7.85;;;;;;;;;;5066814;28;20756;-79
2022/12/20 06:47:12;;;;;;;19.95;8.20;;;;;;;;;;5066552;28;20051;-78
2022/12/20 06:49:38;;;;;;;21.45;8.30;;;;;;;;;;5067877;28;20071;-78
2022/12/20 06:52:05;;;;;;;22.77;9.15;;;;;;;;;;5086741;28;20047;-78
2022/12/20 06:54:31;;;;;;;23.15;9.80;;;;;;;;;;5109960;28;20075;-78
2022/12/20 06:56:57;;;;;;;28.85;11.20;;;;;;;;;;5084551;28;20524;-79
2022/12/20 06:59:24;;;;;;;28.63;10.85;;;;;;;;;;5072445;28;20044;-78
2022/12/20 07:01:51;;;;;;;33.05;11.55;;;;;;;;;;5091729;28;20102;-78
2022/12/20 07:04:18;;;;;;;28.55;11.25;;;;;;;;;;5091047;28;20131;-79
2022/12/20 07:06:45;;;;;;;29.08;10.90;;;;;;;;;;5068844;28;20048;-77
2022/12/20 07:09:11;;;;;;;33.70;12.05;;;;;;;;;;5068837;28;20049;-79
2022/12/20 07:11:37;;;;;;;32.00;11.55;;;;;;;;;;5070709;28;20044;-78
2022/12/20 07:14:04;;;;;;;34.05;12.07;;;;;;;;;;5066563;28;20049;-78
2022/12/20 07:16:31;;;;;;;38.05;13.02;;;;;;;;;;5063875;28;20177;-78
2022/12/20 07:18:57;;;;;;;34.75;12.82;;;;;;;;;;5067878;28;20040;-79
2022/12/20 07:21:24;;;;;;;39.15;12.93;;;;;;;;;;5069077;28;20036;-78
2022/12/20 07:23:51;;;;;;;40.28;13.65;;;;;;;;;;5068305;28;20049;-79
2022/12/20 07:26:17;;;;;;;35.40;13.50;;;;;;;;;;5070931;28;20450;-79
2022/12/20 07:28:44;;;;;;;37.50;13.35;;;;;;;;;;5051703;28;20052;-79
2022/12/20 07:31:10;;;;;;;40.47;14.05;;;;;;;;;;5068262;28;20055;-79
2022/12/20 07:33:37;;;;;;;40.10;13.93;;;;;;;;;;5051424;28;20703;-78
2022/12/20 07:36:08;;;;;;;38.55;14.50;;;;;;;;;;5066783;28;20052;-79
2022/12/20 07:38:35;;;;;;;36.08;14.60;;;;;;;;;;5071613;28;20048;-79
2022/12/20 07:41:05;;;;;;;37.25;14.18;;;;;;;;;;5072280;28;20512;-79
2022/12/20 07:43:32;;;;;;;38.53;14.88;;;;;;;;;;5067716;28;20045;-77
2022/12/20 07:45:59;;;;;;;43.95;15.02;;;;;;;;;;5071818;28;20051;-78
2022/12/20 07:48:25;;;;;;;38.05;14.70;;;;;;;;;;5072193;28;20068;-79
2022/12/20 07:50:57;;;;;;;44.75;15.15;;;;;;;;;;5072264;28;20246;-78
2022/12/20 07:53:25;;;;;;;40.95;14.00;;;;;;;;;;5072065;28;20052;-78
2022/12/20 07:55:52;;;;;;;36.08;13.50;;;;;;;;;;5073588;28;20064;-79
2022/12/20 07:58:19;;;;;;;42.72;14.27;;;;;;;;;;5072662;28;20098;-78
2022/12/20 08:00:46;;;;;;;35.40;14.05;;;;;;;;;;5072993;28;20040;-79
2022/12/20 08:03:15;;;;;;;37.22;13.95;;;;;;;;;;5070479;28;20102;-78
2022/12/20 08:05:44;;;;;;;41.05;14.23;;;;;;;;;;5073041;28;20040;-79
2022/12/20 08:08:11;;;;;;;44.42;18.00;;;;;;;;;;5070744;28;20416;-80
2022/12/20 08:10:37;;;;;;;71.95;26.38;;;;;;;;;;5055225;28;20051;-80
2022/12/20 08:13:05;;;;;;;57.17;23.23;;;;;;;;;;5054143;28;20492;-79
2022/12/20 08:15:32;;;;;;;41.95;16.45;;;;;;;;;;5074000;28;20056;-79
2022/12/20 08:17:58;;;;;;;40.53;15.00;;;;;;;;;;5074241;28;20052;-79
2022/12/20 08:20:25;;;;;;;43.92;16.02;;;;;;;;;;5073902;28;20041;-78
2022/12/20 08:22:51;;;;;;;40.63;14.75;;;;;;;;;;5055644;28;20082;-80
2022/12/20 08:25:18;;;;;;;43.20;14.77;;;;;;;;;;5074147;28;20048;-79
2022/12/20 08:27:44;;;;;;;34.97;14.18;;;;;;;;;;5073069;28;20052;-79
2022/12/20 08:30:10;;;;;;;37.22;13.82;;;;;;;;;;5072919;28;20048;-80
2022/12/20 08:32:37;;;;;;;49.42;14.45;;;;;;;;;;5056418;28;20621;-80
2022/12/20 08:35:03;;;;;;;38.95;13.75;;;;;;;;;;5077607;28;20114;-80
2022/12/20 08:37:30;;;;;;;32.10;13.57;;;;;;;;;;5072683;28;20151;-79
2022/12/20 08:39:56;;;;;;;36.47;15.68;;;;;;;;;;5055511;28;20064;-80
2022/12/20 08:42:24;;;;;;;36.50;15.77;;;;;;;;;;5072619;28;20044;-79
2022/12/20 08:44:50;;;;;;;33.63;13.95;;;;;;;;;;5073022;28;20048;-80
2022/12/20 08:47:17;;;;;;;31.80;13.45;;;;;;;;;;5079624;28;20059;-79
2022/12/20 08:49:43;;;;;;;39.28;15.63;;;;;;;;;;5079471;28;20040;-79
2022/12/20 08:52:13;;;;;;;30.50;13.40;;;;;;;;;;5074922;28;20048;-77
2022/12/20 08:54:39;;;;;;;38.17;14.88;;;;;;;;;;5054744;28;20064;-79
2022/12/20 08:57:06;;;;;;;40.33;16.60;;;;;;;;;;5073020;28;20398;-79
2022/12/20 08:59:32;;;;;;;38.45;14.75;;;;;;;;;;5072423;28;20048;-79
2022/12/20 09:01:58;;;;;;;37.55;15.27;;;;;;;;;;5055464;28;20148;-79
2022/12/20 09:04:25;;;;;;;57.05;18.73;;;;;;;;;;5071675;28;20052;-79
2022/12/20 09:06:51;;;;;;;37.67;14.48;;;;;;;;;;5071843;28;20052;-78
2022/12/20 09:09:18;;;;;;;51.50;19.70;;;;;;;;;;5071023;28;20059;-79
2022/12/20 09:11:44;;;;;;;65.00;23.85;;;;;;;;;;5071437;28;20068;-79
2022/12/20 09:14:11;;;;;;;49.80;19.60;;;;;;;;;;5069485;28;20063;-78
2022/12/20 09:16:37;;;;;;;35.03;14.30;;;;;;;;;;5072009;28;20063;-78
2022/12/20 09:19:04;;;;;;;35.13;14.93;;;;;;;;;;5092268;28;20044;-79
2022/12/20 09:21:32;;;;;;;32.10;13.50;;;;;;;;;;5096706;28;20068;-79
2022/12/20 09:23:59;;;;;;;35.53;15.15;;;;;;;;;;5112473;28;20100;-80
2022/12/20 09:26:25;;;;;;;39.30;16.85;;;;;;;;;;5099274;28;20063;-79
2022/12/20 09:28:52;;;;;;;42.20;17.60;;;;;;;;;;5092008;28;20055;-79
2022/12/20 09:31:20;;;;;;;38.78;16.05;;;;;;;;;;5093334;28;20510;-79
2022/12/20 09:33:47;;;;;;;45.40;18.33;;;;;;;;;;5089121;28;20059;-79
2022/12/20 09:36:17;;;;;;;46.10;19.33;;;;;;;;;;5093476;28;20047;-79
2022/12/20 09:38:44;;;;;;;43.33;17.33;;;;;;;;;;5092648;28;20143;-80
2022/12/20 09:41:23;;;;;;;44.65;18.65;;;;;;;;;;5093616;28;20258;-79
2022/12/20 09:43:50;;;;;;;55.15;23.90;;;;;;;;;;5090237;28;20155;-78
2022/12/20 09:46:17;;;;;;;53.25;22.75;;;;;;;;;;5092316;28;20095;-79
2022/12/20 09:48:44;;;;;;;44.55;19.08;;;;;;;;;;5090745;28;20114;-78
2022/12/20 09:51:19;;;;;;;27.95;13.45;;;;;;;;;;5079395;28;20040;-78
2022/12/20 09:53:45;;;;;;;32.10;12.07;;;;;;;;;;5069594;28;20450;-78
2022/12/20 09:56:38;;;;;;;31.48;12.43;;;;;;;;;;5071287;28;20045;-78
2022/12/20 09:59:05;;;;;;;31.40;13.27;;;;;;;;;;5065131;28;20045;-78
2022/12/20 10:01:32;;;;;;;28.95;13.00;;;;;;;;;;5072743;28;20595;-78
2022/12/20 10:04:06;;;;;;;30.33;13.15;;;;;;;;;;5051738;28;20052;-78
2022/12/20 10:06:32;;;;;;;27.23;12.18;;;;;;;;;;5054545;28;20076;-78
2022/12/20 10:09:11;;;;;;;28.08;12.82;;;;;;;;;;5073020;28;20040;-79
2022/12/20 10:11:49;;;;;;;29.70;12.32;;;;;;;;;;5053956;28;20051;-79
2022/12/20 10:14:35;;;;;;;31.90;12.82;;;;;;;;;;5051350;28;20068;-78
2022/12/20 10:17:04;;;;;;;33.00;13.93;;;;;;;;;;5055361;28;20049;-79
2022/12/20 10:19:33;;;;;;;34.33;13.75;;;;;;;;;;5053261;28;20135;-78
2022/12/20 10:22:06;;;;;;;30.48;13.27;;;;;;;;;;5057047;28;20041;-78
2022/12/20 10:24:33;;;;;;;31.23;13.32;;;;;;;;;;5069388;28;20048;-78
2022/12/20 10:27:19;;;;;;;28.92;12.07;;;;;;;;;;5051667;28;20048;-79
2022/12/20 10:29:45;;;;;;;;;;;;;;;;;;5069861;28;20431;-79
2022/12/20 10:32:17;;;;;;;32.78;13.77;;;;;;;;;;5070106;28;20518;-79
2022/12/20 10:34:50;;;;;;;31.10;13.10;;;;;;;;;;5071141;28;20283;-78
2022/12/20 10:37:17;;;;;;;28.67;13.00;;;;;;;;;;5070451;28;20361;-78
2022/12/20 10:39:46;;;;;;;32.58;13.75;;;;;;;;;;5061162;28;20049;-78
2022/12/20 10:42:31;;;;;;;30.48;13.65;;;;;;;;;;5079363;28;20063;-77
2022/12/20 10:44:57;;;;;;;33.92;13.73;;;;;;;;;;5090739;28;20525;-79
2022/12/20 10:47:44;;;;;;;30.95;13.43;;;;;;;;;;5091068;28;20071;-78
2022/12/20 10:50:18;;;;;;;30.13;13.18;;;;;;;;;;5090312;28;20067;-79
2022/12/20 10:52:44;;;;;;;35.42;13.38;;;;;;;;;;5088243;28;20050;-77
2022/12/20 10:55:30;;;;;;;28.45;12.10;;;;;;;;;;5078654;28;20135;-78
2022/12/20 10:58:00;;;;;;;30.07;13.23;;;;;;;;;;5089496;28;20054;-80
2022/12/20 11:00:28;;;;;;;28.00;11.98;;;;;;;;;;5091042;28;20298;-80
2022/12/20 11:03:04;;;;;;;28.27;12.38;;;;;;;;;;5091055;28;20630;-79
2022/12/20 11:05:30;;;;;;;;;;;;;;;;;;5093862;28;20424;-80
2022/12/20 11:08:17;;;;;;;30.55;11.75;;;;;;;;;;5072562;28;20369;-80
2022/12/20 11:11:11;;;;;;;29.35;12.05;;;;;;;;;;5071188;28;20436;-79
2022/12/20 11:13:39;;;;;;;32.35;12.50;;;;;;;;;;5071099;28;20088;-80
2022/12/20 11:16:19;;;;;;;28.00;12.15;;;;;;;;;;5070096;28;20112;-79
2022/12/20 11:18:58;;;;;;;28.15;11.82;;;;;;;;;;5077419;28;20056;-79
2022/12/20 11:21:45;;;;;;;31.20;11.60;;;;;;;;;;5079726;28;20111;-78
2022/12/20 11:24:31;;;;;;;27.60;11.60;;;;;;;;;;5074798;28;20048;-79
2022/12/20 11:27:04;;;;;;;30.33;12.40;;;;;;;;;;5078460;28;20052;-79
2022/12/20 11:29:55;;;;;;;28.67;12.25;;;;;;;;;;5078332;28;20488;-79
2022/12/20 11:32:22;;;;;;;27.60;11.10;;;;;;;;;;5059572;28;20053;-78
2022/12/20 11:34:57;;;;;;;29.98;12.45;;;;;;;;;;5076028;28;20059;-78
2022/12/20 11:37:24;;;;;;;;;;;;;;;;;;5081016;28;20059;-78
2022/12/20 11:40:09;;;;;;;26.70;11.57;;;;;;;;;;5098264;28;19927;-79
2022/12/20 11:42:51;;;;;;;29.98;12.32;;;;;;;;;;5097206;28;20048;-79
2022/12/20 11:45:22;;;;;;;28.05;11.20;;;;;;;;;;5098546;28;20125;-78
2022/12/20 11:47:58;;;;;;;27.75;11.50;;;;;;;;;;5081799;28;20040;-79
2022/12/20 11:50:25;;;;;;;;;;;;;;;;;;5098475;28;20072;-80
2022/12/20 11:52:55;;;;;;;25.63;10.35;;;;;;;;;;5074515;28;19932;-79
2022/12/20 11:55:32;;;;;;;23.88;10.70;;;;;;;;;;5081677;28;20053;-79
2022/12/20 11:58:01;;;;;;;22.58;10.80;;;;;;;;;;5079283;28;20829;-78
2022/12/20 12:00:51;;;;;;;29.80;11.65;;;;;;;;;;5079765;28;20104;-79
2022/12/20 12:03:18;;;;;;;25.75;11.88;;;;;;;;;;5076733;28;20044;-78
2022/12/20 12:05:51;;;;;;;27.42;12.43;;;;;;;;;;5078691;28;20075;-79
2022/12/20 12:08:20;;;;;;;30.27;12.23;;;;;;;;;;5080286;28;20052;-78
2022/12/20 12:10:53;;;;;;;27.77;11.95;;;;;;;;;;5079066;28;20048;-78
2022/12/20 12:13:26;;;;;;;23.30;10.52;;;;;;;;;;5077705;28;20488;-79
2022/12/20 12:15:58;;;;;;;11.93;5.40;;;;;;;;;;5061316;28;20048;-79
2022/12/20 12:18:29;;;;;;;7.40;3.35;;;;;;;;;;5078671;28;20052;-79
2022/12/20 12:21:05;;;;;;;6.50;2.78;;;;;;;;;;5077679;28;20044;-77
2022/12/20 12:23:35;;;;;;;6.30;2.80;;;;;;;;;;5093137;28;20043;-78
2022/12/20 12:26:04;;;;;;;6.28;2.80;;;;;;;;;;5097160;28;20059;-78
2022/12/20 12:28:31;;;;;;;5.72;2.80;;;;;;;;;;5096285;28;20044;-79
2022/12/20 12:31:10;;;;;;;8.57;3.10;;;;;;;;;;5096768;28;20048;-78
2022/12/20 12:33:41;;;;;;;6.20;2.60;;;;;;;;;;5094184;28;20048;-79
2022/12/20 12:36:26;;;;;;;5.75;2.83;;;;;;;;;;5096999;28;20079;-79
2022/12/20 12:38:53;;;;;;;7.65;3.10;;;;;;;;;;5096533;28;20074;-79
2022/12/20 12:41:46;;;;;;;8.20;2.58;;;;;;;;;;5094716;28;20548;-79
2022/12/20 12:44:21;;;;;;;10.90;3.17;;;;;;;;;;5092755;28;20052;-79
2022/12/20 12:46:53;;;;;;;6.70;3.17;;;;;;;;;;5094106;28;20047;-79
2022/12/20 12:49:21;;;;;;;7.10;3.15;;;;;;;;;;5094491;28;20420;-78
2022/12/20 12:51:52;;;;;;;7.55;3.15;;;;;;;;;;5094809;28;20078;-79
2022/12/20 12:54:24;;;;;;;7.60;2.85;;;;;;;;;;5094591;28;20059;-79
2022/12/20 12:56:51;;;;;;;6.47;2.83;;;;;;;;;;5093307;28;20058;-79
2022/12/20 12:59:20;;;;;;;7.13;2.97;;;;;;;;;;5087707;28;20052;-79
2022/12/20 13:01:49;;;;;;;5.07;2.75;;;;;;;;;;5073416;28;20052;-77
2022/12/20 13:04:15;;;;;;;6.85;2.50;;;;;;;;;;5072729;28;20504;-78
2022/12/20 13:06:44;;;;;;;4.97;2.60;;;;;;;;;;5074284;28;20147;-79
2022/12/20 13:09:31;;;;;;;9.50;3.28;;;;;;;;;;5074929;28;20044;-79
2022/12/20 13:11:57;;;;;;;6.40;2.80;;;;;;;;;;5057723;28;20127;-78
2022/12/20 13:14:30;;;;;;;7.57;2.97;;;;;;;;;;5080728;28;20504;-78
2022/12/20 13:17:03;;;;;;;6.60;2.88;;;;;;;;;;5078140;28;20123;-78
2022/12/20 13:19:51;;;;;;;6.97;3.30;;;;;;;;;;5072289;28;20128;-78
2022/12/20 13:22:21;;;;;;;6.05;3.03;;;;;;;;;;5072164;28;20417;-77
2022/12/20 13:24:55;;;;;;;6.57;3.30;;;;;;;;;;5074754;28;20048;-78
2022/12/20 13:27:28;;;;;;;7.07;3.42;;;;;;;;;;5077013;28;20640;-78
2022/12/20 13:29:55;;;;;;;6.95;3.08;;;;;;;;;;5061508;28;20058;-79
2022/12/20 13:32:40;;;;;;;8.27;2.78;;;;;;;;;;5078651;28;20044;-78
2022/12/20 13:35:26;;;;;;;6.30;3.08;;;;;;;;;;5074156;28;20123;-79
2022/12/20 13:37:53;;;;;;;8.93;3.50;;;;;;;;;;5081137;28;20052;-78
2022/12/20 13:40:30;;;;;;;7.80;3.60;;;;;;;;;;5091650;28;20504;-79
2022/12/20 13:43:04;;;;;;;7.85;3.60;;;;;;;;;;5090595;28;20550;-78
2022/12/20 13:45:31;;;;;;;9.30;3.13;;;;;;;;;;5092776;28;20060;-77
2022/12/20 13:48:02;;;;;;;6.05;2.72;;;;;;;;;;5094241;28;20047;-79
2022/12/20 13:50:40;;;;;;;7.28;3.03;;;;;;;;;;5082631;28;20075;-78
2022/12/20 13:53:15;;;;;;;7.97;3.00;;;;;;;;;;5072085;28;20071;-78
2022/12/20 13:55:41;;;;;;;7.72;3.78;;;;;;;;;;5072912;28;20108;-78
2022/12/20 13:58:14;;;;;;;13.13;4.55;;;;;;;;;;5068532;28;20055;-79
2022/12/20 14:00:41;;;;;;;14.00;4.53;;;;;;;;;;5071541;28;20040;-79
2022/12/20 14:03:21;;;;;;;13.68;6.20;;;;;;;;;;5069022;28;20040;-78
2022/12/20 14:05:48;;;;;;;14.02;5.88;;;;;;;;;;5069170;28;20606;-76
2022/12/20 14:08:19;;;;;;;13.82;6.00;;;;;;;;;;5069492;28;20215;-78
2022/12/20 14:10:45;;;;;;;13.52;6.15;;;;;;;;;;5068943;28;20570;-78
2022/12/20 14:13:19;;;;;;;14.48;6.55;;;;;;;;;;5070436;28;20059;-78
2022/12/20 14:15:46;;;;;;;15.68;6.53;;;;;;;;;;5073338;28;20066;-78
2022/12/20 14:18:19;;;;;;;18.08;6.82;;;;;;;;;;5072471;28;20131;-78
2022/12/20 14:20:48;;;;;;;12.68;6.22;;;;;;;;;;5070989;28;20048;-78
2022/12/20 14:23:19;;;;;;;18.00;6.97;;;;;;;;;;5067906;28;20044;-79
2022/12/20 14:25:49;;;;;;;18.55;7.15;;;;;;;;;;5071264;28;20084;-79
2022/12/20 14:28:26;;;;;;;19.95;7.88;;;;;;;;;;5070258;28;20054;-78
2022/12/20 14:30:54;;;;;;;17.90;7.82;;;;;;;;;;5070857;28;20092;-78
2022/12/20 14:33:26;;;;;;;17.23;7.30;;;;;;;;;;5066434;28;20052;-79
2022/12/20 14:35:53;;;;;;;15.98;7.45;;;;;;;;;;5070203;28;20144;-78
2022/12/20 14:38:21;;;;;;;20.08;7.93;;;;;;;;;;5051766;28;20052;-78
2022/12/20 14:40:48;;;;;;;24.23;9.52;;;;;;;;;;5067510;28;20161;-79
2022/12/20 14:43:27;;;;;;;23.42;10.88;;;;;;;;;;5065812;28;20041;-78
2022/12/20 14:46:06;;;;;;;25.17;8.93;;;;;;;;;;5064082;28;20662;-78
2022/12/20 14:48:33;;;;;;;19.50;9.18;;;;;;;;;;5061090;28;20059;-77